sensor_id;sensor_type;location;lat;lon;timestamp;P1;durP1;ratioP1;P2;durP2;ratioP2
2338;SDS011;1180;51.438;6.978;2023-03-14T00:02:09;3.20;;;1.70;;
2338;SDS011;1180;51.438;6.978;2023-03-14T00:04:35;2.30;;;1.20;;
2338;SDS011;1180;51.438;6.978;2023-03-14T00:07:02;4.13;;;1.90;;
2338;SDS011;1180;51.438;6.978;2023-03-14T00:09:29;4.23;;;1.70;;
2338;SDS011;1180;51.438;6.978;2023-03-14T00:11:55;2.93;;;2.07;;
2338;SDS011;1180;51.438;6.978;2023-03-14T00:14:20;4.07;;;1.73;;
2338;SDS011;1180;51.438;6.978;2023-03-14T00:16:46;8.20;;;2.20;;
2338;SDS011;1180;51.438;6.978;2023-03-14T00:19:11;2.33;;;1.43;;
2338;SDS011;1180;51.438;6.978;2023-03-14T00:21:37;3.57;;;1.60;;
2338;SDS011;1180;51.438;6.978;2023-03-14T00:24:02;3.60;;;1.90;;
2338;SDS011;1180;51.438;6.978;2023-03-14T00:26:28;4.37;;;1.40;;
2338;SDS011;1180;51.438;6.978;2023-03-14T00:28:53;2.30;;;1.30;;
2338;SDS011;1180;51.438;6.978;2023-03-14T00:31:19;7.70;;;2.07;;
2338;SDS011;1180;51.438;6.978;2023-03-14T00:33:44;5.73;;;1.50;;
2338;SDS011;1180;51.438;6.978;2023-03-14T00:36:14;3.90;;;1.60;;
2338;SDS011;1180;51.438;6.978;2023-03-14T00:38:42;3.67;;;1.77;;
2338;SDS011;1180;51.438;6.978;2023-03-14T00:41:09;4.93;;;1.30;;
2338;SDS011;1180;51.438;6.978;2023-03-14T00:43:37;3.93;;;1.87;;
2338;SDS011;1180;51.438;6.978;2023-03-14T00:46:03;5.33;;;1.53;;
2338;SDS011;1180;51.438;6.978;2023-03-14T00:48:29;2.37;;;1.37;;
2338;SDS011;1180;51.438;6.978;2023-03-14T00:50:55;4.33;;;1.87;;
2338;SDS011;1180;51.438;6.978;2023-03-14T00:53:20;5.97;;;2.20;;
2338;SDS011;1180;51.438;6.978;2023-03-14T00:55:46;5.47;;;1.70;;
2338;SDS011;1180;51.438;6.978;2023-03-14T00:58:12;5.63;;;1.60;;
2338;SDS011;1180;51.438;6.978;2023-03-14T01:00:39;5.30;;;1.47;;
2338;SDS011;1180;51.438;6.978;2023-03-14T01:03:06;3.27;;;1.73;;
2338;SDS011;1180;51.438;6.978;2023-03-14T01:05:31;1.50;;;1.00;;
2338;SDS011;1180;51.438;6.978;2023-03-14T01:07:57;4.43;;;1.03;;
2338;SDS011;1180;51.438;6.978;2023-03-14T01:10:23;2.97;;;1.07;;
2338;SDS011;1180;51.438;6.978;2023-03-14T01:12:48;3.00;;;0.97;;
2338;SDS011;1180;51.438;6.978;2023-03-14T01:15:14;3.43;;;1.03;;
2338;SDS011;1180;51.438;6.978;2023-03-14T01:17:39;2.47;;;1.03;;
2338;SDS011;1180;51.438;6.978;2023-03-14T01:20:06;4.43;;;1.70;;
2338;SDS011;1180;51.438;6.978;2023-03-14T01:22:36;2.03;;;1.10;;
2338;SDS011;1180;51.438;6.978;2023-03-14T01:25:05;4.03;;;1.20;;
2338;SDS011;1180;51.438;6.978;2023-03-14T01:27:32;3.60;;;1.00;;
2338;SDS011;1180;51.438;6.978;2023-03-14T01:29:58;2.03;;;0.90;;
2338;SDS011;1180;51.438;6.978;2023-03-14T01:32:23;2.87;;;1.10;;
2338;SDS011;1180;51.438;6.978;2023-03-14T01:34:49;4.77;;;1.00;;
2338;SDS011;1180;51.438;6.978;2023-03-14T01:37:14;2.03;;;1.57;;
2338;SDS011;1180;51.438;6.978;2023-03-14T01:39:39;3.83;;;1.20;;
2338;SDS011;1180;51.438;6.978;2023-03-14T01:42:05;6.30;;;1.70;;
2338;SDS011;1180;51.438;6.978;2023-03-14T01:44:49;3.87;;;1.40;;
2338;SDS011;1180;51.438;6.978;2023-03-14T01:47:23;5.83;;;1.63;;
2338;SDS011;1180;51.438;6.978;2023-03-14T01:49:53;4.83;;;1.13;;
2338;SDS011;1180;51.438;6.978;2023-03-14T01:52:25;7.60;;;1.60;;
2338;SDS011;1180;51.438;6.978;2023-03-14T01:54:59;3.73;;;1.17;;
2338;SDS011;1180;51.438;6.978;2023-03-14T01:57:40;7.10;;;1.60;;
2338;SDS011;1180;51.438;6.978;2023-03-14T02:00:10;3.13;;;1.27;;
2338;SDS011;1180;51.438;6.978;2023-03-14T02:02:46;4.00;;;1.20;;
2338;SDS011;1180;51.438;6.978;2023-03-14T02:05:14;7.40;;;1.40;;
2338;SDS011;1180;51.438;6.978;2023-03-14T02:07:47;2.90;;;1.37;;
2338;SDS011;1180;51.438;6.978;2023-03-14T02:10:20;5.37;;;1.80;;
2338;SDS011;1180;51.438;6.978;2023-03-14T02:12:48;3.53;;;1.10;;
2338;SDS011;1180;51.438;6.978;2023-03-14T02:15:15;3.80;;;1.10;;
2338;SDS011;1180;51.438;6.978;2023-03-14T02:17:41;5.40;;;2.17;;
2338;SDS011;1180;51.438;6.978;2023-03-14T02:20:10;2.27;;;1.33;;
2338;SDS011;1180;51.438;6.978;2023-03-14T02:22:59;3.53;;;1.17;;
2338;SDS011;1180;51.438;6.978;2023-03-14T02:28:15;5.87;;;1.60;;
2338;SDS011;1180;51.438;6.978;2023-03-14T02:30:41;4.37;;;1.37;;
2338;SDS011;1180;51.438;6.978;2023-03-14T02:33:08;5.33;;;1.33;;
2338;SDS011;1180;51.438;6.978;2023-03-14T02:35:37;2.10;;;1.10;;
2338;SDS011;1180;51.438;6.978;2023-03-14T02:38:10;4.10;;;1.50;;
2338;SDS011;1180;51.438;6.978;2023-03-14T02:40:43;6.87;;;1.70;;
2338;SDS011;1180;51.438;6.978;2023-03-14T02:43:08;5.33;;;1.50;;
2338;SDS011;1180;51.438;6.978;2023-03-14T02:45:35;2.93;;;1.33;;
2338;SDS011;1180;51.438;6.978;2023-03-14T02:48:07;5.43;;;1.33;;
2338;SDS011;1180;51.438;6.978;2023-03-14T02:50:38;6.83;;;1.83;;
2338;SDS011;1180;51.438;6.978;2023-03-14T02:53:04;4.13;;;2.23;;
2338;SDS011;1180;51.438;6.978;2023-03-14T02:55:29;4.47;;;1.63;;
2338;SDS011;1180;51.438;6.978;2023-03-14T02:57:55;3.00;;;1.43;;
2338;SDS011;1180;51.438;6.978;2023-03-14T03:00:20;5.70;;;1.60;;
2338;SDS011;1180;51.438;6.978;2023-03-14T03:02:46;4.13;;;1.57;;
2338;SDS011;1180;51.438;6.978;2023-03-14T03:05:11;2.60;;;1.27;;
2338;SDS011;1180;51.438;6.978;2023-03-14T03:07:36;3.90;;;1.40;;
2338;SDS011;1180;51.438;6.978;2023-03-14T03:10:02;2.83;;;1.23;;
2338;SDS011;1180;51.438;6.978;2023-03-14T03:12:28;9.00;;;1.73;;
2338;SDS011;1180;51.438;6.978;2023-03-14T03:14:54;3.40;;;1.60;;
2338;SDS011;1180;51.438;6.978;2023-03-14T03:17:19;3.73;;;1.63;;
2338;SDS011;1180;51.438;6.978;2023-03-14T03:19:44;4.27;;;1.57;;
2338;SDS011;1180;51.438;6.978;2023-03-14T03:22:10;8.50;;;2.50;;
2338;SDS011;1180;51.438;6.978;2023-03-14T03:24:35;6.17;;;1.70;;
2338;SDS011;1180;51.438;6.978;2023-03-14T03:27:01;6.77;;;1.27;;
2338;SDS011;1180;51.438;6.978;2023-03-14T03:29:26;6.20;;;1.53;;
2338;SDS011;1180;51.438;6.978;2023-03-14T03:31:52;5.33;;;1.53;;
2338;SDS011;1180;51.438;6.978;2023-03-14T03:34:18;4.40;;;1.60;;
2338;SDS011;1180;51.438;6.978;2023-03-14T03:36:43;3.10;;;1.50;;
2338;SDS011;1180;51.438;6.978;2023-03-14T03:39:08;2.47;;;1.40;;
2338;SDS011;1180;51.438;6.978;2023-03-14T03:41:34;5.63;;;1.80;;
2338;SDS011;1180;51.438;6.978;2023-03-14T03:43:59;3.80;;;1.63;;
2338;SDS011;1180;51.438;6.978;2023-03-14T03:46:24;6.00;;;1.60;;
2338;SDS011;1180;51.438;6.978;2023-03-14T03:48:57;2.70;;;1.43;;
2338;SDS011;1180;51.438;6.978;2023-03-14T03:51:24;6.53;;;1.27;;
2338;SDS011;1180;51.438;6.978;2023-03-14T03:53:50;3.23;;;2.20;;
2338;SDS011;1180;51.438;6.978;2023-03-14T03:56:15;3.10;;;1.43;;
2338;SDS011;1180;51.438;6.978;2023-03-14T03:58:41;3.60;;;1.50;;
2338;SDS011;1180;51.438;6.978;2023-03-14T04:01:07;6.23;;;1.77;;
2338;SDS011;1180;51.438;6.978;2023-03-14T04:03:33;5.90;;;1.70;;
2338;SDS011;1180;51.438;6.978;2023-03-14T04:06:00;2.10;;;1.47;;
2338;SDS011;1180;51.438;6.978;2023-03-14T04:08:27;6.83;;;1.30;;
2338;SDS011;1180;51.438;6.978;2023-03-14T04:10:59;5.43;;;2.00;;
2338;SDS011;1180;51.438;6.978;2023-03-14T04:13:26;4.80;;;2.33;;
2338;SDS011;1180;51.438;6.978;2023-03-14T04:15:53;4.20;;;1.43;;
2338;SDS011;1180;51.438;6.978;2023-03-14T04:18:19;7.13;;;1.90;;
2338;SDS011;1180;51.438;6.978;2023-03-14T04:20:45;6.00;;;1.57;;
2338;SDS011;1180;51.438;6.978;2023-03-14T04:23:15;3.20;;;1.20;;
2338;SDS011;1180;51.438;6.978;2023-03-14T04:25:40;4.43;;;1.40;;
2338;SDS011;1180;51.438;6.978;2023-03-14T04:28:05;2.10;;;1.17;;
2338;SDS011;1180;51.438;6.978;2023-03-14T04:30:31;1.73;;;0.83;;
2338;SDS011;1180;51.438;6.978;2023-03-14T04:32:56;1.90;;;0.60;;
2338;SDS011;1180;51.438;6.978;2023-03-14T04:35:21;0.80;;;0.50;;
2338;SDS011;1180;51.438;6.978;2023-03-14T04:37:47;0.90;;;0.60;;
2338;SDS011;1180;51.438;6.978;2023-03-14T04:40:14;1.93;;;0.60;;
2338;SDS011;1180;51.438;6.978;2023-03-14T04:42:40;1.80;;;0.70;;
2338;SDS011;1180;51.438;6.978;2023-03-14T04:45:05;2.43;;;0.60;;
2338;SDS011;1180;51.438;6.978;2023-03-14T04:47:32;1.07;;;0.80;;
2338;SDS011;1180;51.438;6.978;2023-03-14T04:49:58;0.97;;;0.70;;
2338;SDS011;1180;51.438;6.978;2023-03-14T04:52:23;1.27;;;0.60;;
2338;SDS011;1180;51.438;6.978;2023-03-14T04:54:48;1.00;;;0.70;;
2338;SDS011;1180;51.438;6.978;2023-03-14T04:57:14;1.67;;;1.57;;
2338;SDS011;1180;51.438;6.978;2023-03-14T04:59:39;2.07;;;0.70;;
2338;SDS011;1180;51.438;6.978;2023-03-14T05:02:04;1.00;;;0.60;;
2338;SDS011;1180;51.438;6.978;2023-03-14T05:04:30;2.40;;;0.80;;
2338;SDS011;1180;51.438;6.978;2023-03-14T05:06:57;2.63;;;1.00;;
2338;SDS011;1180;51.438;6.978;2023-03-14T05:09:23;1.77;;;0.60;;
2338;SDS011;1180;51.438;6.978;2023-03-14T05:11:48;1.73;;;0.70;;
2338;SDS011;1180;51.438;6.978;2023-03-14T05:14:14;1.17;;;0.50;;
2338;SDS011;1180;51.438;6.978;2023-03-14T05:16:39;3.23;;;1.33;;
2338;SDS011;1180;51.438;6.978;2023-03-14T05:19:04;0.80;;;0.53;;
2338;SDS011;1180;51.438;6.978;2023-03-14T05:21:30;1.47;;;0.70;;
2338;SDS011;1180;51.438;6.978;2023-03-14T05:23:55;0.90;;;0.60;;
2338;SDS011;1180;51.438;6.978;2023-03-14T05:26:20;1.47;;;0.70;;
2338;SDS011;1180;51.438;6.978;2023-03-14T05:28:46;0.93;;;0.63;;
2338;SDS011;1180;51.438;6.978;2023-03-14T05:31:11;2.20;;;1.63;;
2338;SDS011;1180;51.438;6.978;2023-03-14T05:33:37;1.33;;;0.60;;
2338;SDS011;1180;51.438;6.978;2023-03-14T05:36:02;0.70;;;0.50;;
2338;SDS011;1180;51.438;6.978;2023-03-14T05:38:28;0.70;;;0.50;;
2338;SDS011;1180;51.438;6.978;2023-03-14T05:40:53;1.10;;;0.63;;
2338;SDS011;1180;51.438;6.978;2023-03-14T05:43:18;1.07;;;0.97;;
2338;SDS011;1180;51.438;6.978;2023-03-14T05:45:44;1.00;;;0.80;;
2338;SDS011;1180;51.438;6.978;2023-03-14T05:48:09;3.23;;;0.87;;
2338;SDS011;1180;51.438;6.978;2023-03-14T05:50:34;1.77;;;1.00;;
2338;SDS011;1180;51.438;6.978;2023-03-14T05:53:00;1.47;;;1.10;;
2338;SDS011;1180;51.438;6.978;2023-03-14T05:55:25;2.07;;;1.40;;
2338;SDS011;1180;51.438;6.978;2023-03-14T05:57:52;3.50;;;1.33;;
2338;SDS011;1180;51.438;6.978;2023-03-14T06:00:18;1.90;;;1.80;;
2338;SDS011;1180;51.438;6.978;2023-03-14T06:02:44;2.40;;;2.00;;
2338;SDS011;1180;51.438;6.978;2023-03-14T06:05:10;1.90;;;1.20;;
2338;SDS011;1180;51.438;6.978;2023-03-14T06:07:36;2.70;;;1.97;;
2338;SDS011;1180;51.438;6.978;2023-03-14T06:10:01;2.80;;;1.63;;
2338;SDS011;1180;51.438;6.978;2023-03-14T06:12:27;2.33;;;1.50;;
2338;SDS011;1180;51.438;6.978;2023-03-14T06:14:53;3.27;;;2.27;;
2338;SDS011;1180;51.438;6.978;2023-03-14T06:17:18;4.87;;;2.30;;
2338;SDS011;1180;51.438;6.978;2023-03-14T06:19:44;1.90;;;1.30;;
2338;SDS011;1180;51.438;6.978;2023-03-14T06:22:09;5.13;;;2.40;;
2338;SDS011;1180;51.438;6.978;2023-03-14T06:24:35;2.63;;;1.63;;
2338;SDS011;1180;51.438;6.978;2023-03-14T06:27:00;1.73;;;1.30;;
2338;SDS011;1180;51.438;6.978;2023-03-14T06:29:27;3.70;;;1.57;;
2338;SDS011;1180;51.438;6.978;2023-03-14T06:31:52;1.90;;;1.80;;
2338;SDS011;1180;51.438;6.978;2023-03-14T06:34:18;3.03;;;1.57;;
2338;SDS011;1180;51.438;6.978;2023-03-14T06:36:43;3.70;;;1.80;;
2338;SDS011;1180;51.438;6.978;2023-03-14T06:39:08;3.40;;;1.53;;
2338;SDS011;1180;51.438;6.978;2023-03-14T06:41:34;2.13;;;1.20;;
2338;SDS011;1180;51.438;6.978;2023-03-14T06:43:59;1.93;;;1.20;;
2338;SDS011;1180;51.438;6.978;2023-03-14T06:46:24;1.00;;;0.70;;
2338;SDS011;1180;51.438;6.978;2023-03-14T06:48:50;1.67;;;0.80;;
2338;SDS011;1180;51.438;6.978;2023-03-14T06:51:15;3.80;;;1.43;;
2338;SDS011;1180;51.438;6.978;2023-03-14T06:53:40;1.20;;;0.80;;
2338;SDS011;1180;51.438;6.978;2023-03-14T06:56:06;1.10;;;0.60;;
2338;SDS011;1180;51.438;6.978;2023-03-14T06:58:32;2.93;;;0.80;;
2338;SDS011;1180;51.438;6.978;2023-03-14T07:00:57;1.53;;;0.77;;
2338;SDS011;1180;51.438;6.978;2023-03-14T07:03:24;0.80;;;0.70;;
2338;SDS011;1180;51.438;6.978;2023-03-14T07:05:49;1.30;;;0.70;;
2338;SDS011;1180;51.438;6.978;2023-03-14T07:08:15;1.83;;;0.60;;
2338;SDS011;1180;51.438;6.978;2023-03-14T07:10:40;1.47;;;0.60;;
2338;SDS011;1180;51.438;6.978;2023-03-14T07:13:05;0.80;;;0.50;;
2338;SDS011;1180;51.438;6.978;2023-03-14T07:15:31;1.60;;;0.53;;
2338;SDS011;1180;51.438;6.978;2023-03-14T07:17:56;0.80;;;0.53;;
2338;SDS011;1180;51.438;6.978;2023-03-14T07:20:22;0.70;;;0.50;;
2338;SDS011;1180;51.438;6.978;2023-03-14T07:22:48;1.30;;;0.87;;
2338;SDS011;1180;51.438;6.978;2023-03-14T07:25:14;1.77;;;0.70;;
2338;SDS011;1180;51.438;6.978;2023-03-14T07:27:40;1.63;;;0.60;;
2338;SDS011;1180;51.438;6.978;2023-03-14T07:30:07;4.40;;;0.70;;
2338;SDS011;1180;51.438;6.978;2023-03-14T07:32:33;1.47;;;0.70;;
2338;SDS011;1180;51.438;6.978;2023-03-14T07:34:58;0.90;;;0.67;;
2338;SDS011;1180;51.438;6.978;2023-03-14T07:37:25;0.90;;;0.67;;
2338;SDS011;1180;51.438;6.978;2023-03-14T07:39:50;2.60;;;0.73;;
2338;SDS011;1180;51.438;6.978;2023-03-14T07:42:16;0.80;;;0.60;;
2338;SDS011;1180;51.438;6.978;2023-03-14T07:44:41;1.43;;;0.60;;
2338;SDS011;1180;51.438;6.978;2023-03-14T07:47:06;1.00;;;0.60;;
2338;SDS011;1180;51.438;6.978;2023-03-14T07:49:31;0.83;;;0.63;;
2338;SDS011;1180;51.438;6.978;2023-03-14T07:51:57;1.03;;;0.50;;
2338;SDS011;1180;51.438;6.978;2023-03-14T07:54:23;1.63;;;0.60;;
2338;SDS011;1180;51.438;6.978;2023-03-14T07:56:49;0.80;;;0.60;;
2338;SDS011;1180;51.438;6.978;2023-03-14T07:59:15;0.80;;;0.60;;
2338;SDS011;1180;51.438;6.978;2023-03-14T08:01:40;0.90;;;0.60;;
2338;SDS011;1180;51.438;6.978;2023-03-14T08:04:06;0.93;;;0.63;;
2338;SDS011;1180;51.438;6.978;2023-03-14T08:06:31;1.30;;;1.03;;
2338;SDS011;1180;51.438;6.978;2023-03-14T08:08:57;0.70;;;0.60;;
2338;SDS011;1180;51.438;6.978;2023-03-14T08:11:22;4.50;;;0.70;;
2338;SDS011;1180;51.438;6.978;2023-03-14T08:13:48;0.80;;;0.70;;
2338;SDS011;1180;51.438;6.978;2023-03-14T08:16:15;1.00;;;0.80;;
2338;SDS011;1180;51.438;6.978;2023-03-14T08:18:42;0.80;;;0.60;;
2338;SDS011;1180;51.438;6.978;2023-03-14T08:21:08;1.00;;;0.87;;
2338;SDS011;1180;51.438;6.978;2023-03-14T08:23:33;1.93;;;0.80;;
2338;SDS011;1180;51.438;6.978;2023-03-14T08:25:58;1.10;;;0.70;;
2338;SDS011;1180;51.438;6.978;2023-03-14T08:28:24;1.07;;;0.73;;
2338;SDS011;1180;51.438;6.978;2023-03-14T08:30:55;3.13;;;1.33;;
2338;SDS011;1180;51.438;6.978;2023-03-14T08:33:20;1.00;;;0.70;;
2338;SDS011;1180;51.438;6.978;2023-03-14T08:35:46;1.70;;;0.80;;
2338;SDS011;1180;51.438;6.978;2023-03-14T08:38:11;3.90;;;0.80;;
2338;SDS011;1180;51.438;6.978;2023-03-14T08:40:36;0.90;;;0.77;;
2338;SDS011;1180;51.438;6.978;2023-03-14T08:43:02;0.80;;;0.70;;
2338;SDS011;1180;51.438;6.978;2023-03-14T08:45:27;1.00;;;0.80;;
2338;SDS011;1180;51.438;6.978;2023-03-14T08:47:53;1.07;;;0.97;;
2338;SDS011;1180;51.438;6.978;2023-03-14T08:50:18;1.23;;;1.00;;
2338;SDS011;1180;51.438;6.978;2023-03-14T08:52:44;1.00;;;0.80;;
2338;SDS011;1180;51.438;6.978;2023-03-14T08:55:09;1.30;;;1.20;;
2338;SDS011;1180;51.438;6.978;2023-03-14T08:57:35;1.03;;;0.93;;
2338;SDS011;1180;51.438;6.978;2023-03-14T09:00:01;1.93;;;1.10;;
2338;SDS011;1180;51.438;6.978;2023-03-14T09:02:30;0.90;;;0.80;;
2338;SDS011;1180;51.438;6.978;2023-03-14T09:04:55;1.40;;;1.27;;
2338;SDS011;1180;51.438;6.978;2023-03-14T09:07:21;2.20;;;2.00;;
2338;SDS011;1180;51.438;6.978;2023-03-14T09:09:46;2.20;;;2.00;;
2338;SDS011;1180;51.438;6.978;2023-03-14T09:12:12;1.97;;;1.50;;
2338;SDS011;1180;51.438;6.978;2023-03-14T09:14:38;1.70;;;1.53;;
2338;SDS011;1180;51.438;6.978;2023-03-14T09:17:03;2.33;;;1.90;;
2338;SDS011;1180;51.438;6.978;2023-03-14T09:19:29;2.40;;;1.87;;
2338;SDS011;1180;51.438;6.978;2023-03-14T09:21:55;1.93;;;1.67;;
2338;SDS011;1180;51.438;6.978;2023-03-14T09:24:20;1.50;;;1.40;;
2338;SDS011;1180;51.438;6.978;2023-03-14T09:26:46;1.30;;;0.70;;
2338;SDS011;1180;51.438;6.978;2023-03-14T09:29:11;3.00;;;0.73;;
2338;SDS011;1180;51.438;6.978;2023-03-14T09:31:37;0.90;;;0.70;;
2338;SDS011;1180;51.438;6.978;2023-03-14T09:34:02;1.37;;;1.00;;
2338;SDS011;1180;51.438;6.978;2023-03-14T09:36:28;1.50;;;0.80;;
2338;SDS011;1180;51.438;6.978;2023-03-14T09:38:53;1.77;;;0.93;;
2338;SDS011;1180;51.438;6.978;2023-03-14T09:41:26;2.93;;;1.40;;
2338;SDS011;1180;51.438;6.978;2023-03-14T09:46:58;1.37;;;1.23;;
2338;SDS011;1180;51.438;6.978;2023-03-14T09:49:28;2.00;;;1.17;;
2338;SDS011;1180;51.438;6.978;2023-03-14T09:51:58;3.43;;;1.30;;
2338;SDS011;1180;51.438;6.978;2023-03-14T09:54:35;2.40;;;1.40;;
2338;SDS011;1180;51.438;6.978;2023-03-14T09:57:04;1.83;;;1.17;;
2338;SDS011;1180;51.438;6.978;2023-03-14T09:59:31;3.90;;;1.80;;
2338;SDS011;1180;51.438;6.978;2023-03-14T10:02:04;2.93;;;1.60;;
2338;SDS011;1180;51.438;6.978;2023-03-14T10:04:39;2.43;;;2.17;;
2338;SDS011;1180;51.438;6.978;2023-03-14T10:07:11;2.40;;;1.77;;
2338;SDS011;1180;51.438;6.978;2023-03-14T10:09:39;3.23;;;2.23;;
2338;SDS011;1180;51.438;6.978;2023-03-14T10:12:07;3.40;;;2.60;;
2338;SDS011;1180;51.438;6.978;2023-03-14T10:14:34;4.23;;;2.63;;
2338;SDS011;1180;51.438;6.978;2023-03-14T10:17:10;6.37;;;3.13;;
2338;SDS011;1180;51.438;6.978;2023-03-14T10:19:37;5.30;;;3.50;;
2338;SDS011;1180;51.438;6.978;2023-03-14T10:22:18;3.23;;;1.60;;
2338;SDS011;1180;51.438;6.978;2023-03-14T10:24:51;3.20;;;1.47;;
2338;SDS011;1180;51.438;6.978;2023-03-14T10:27:20;2.37;;;1.40;;
2338;SDS011;1180;51.438;6.978;2023-03-14T10:29:54;1.50;;;1.40;;
2338;SDS011;1180;51.438;6.978;2023-03-14T10:32:21;2.70;;;1.37;;
2338;SDS011;1180;51.438;6.978;2023-03-14T10:40:31;1.47;;;1.37;;
2338;SDS011;1180;51.438;6.978;2023-03-14T10:42:59;1.40;;;1.27;;
2338;SDS011;1180;51.438;6.978;2023-03-14T10:45:29;2.10;;;1.30;;
2338;SDS011;1180;51.438;6.978;2023-03-14T10:48:20;1.43;;;1.20;;
2338;SDS011;1180;51.438;6.978;2023-03-14T10:51:48;1.10;;;0.80;;
2338;SDS011;1180;51.438;6.978;2023-03-14T10:56:37;1.93;;;1.27;;
2338;SDS011;1180;51.438;6.978;2023-03-14T10:59:03;4.17;;;1.60;;
2338;SDS011;1180;51.438;6.978;2023-03-14T11:01:48;3.53;;;1.33;;
2338;SDS011;1180;51.438;6.978;2023-03-14T11:04:31;1.70;;;1.00;;
2338;SDS011;1180;51.438;6.978;2023-03-14T11:10:02;2.53;;;1.30;;
2338;SDS011;1180;51.438;6.978;2023-03-14T11:15:22;2.17;;;1.30;;
2338;SDS011;1180;51.438;6.978;2023-03-14T11:21:12;1.63;;;1.00;;
2338;SDS011;1180;51.438;6.978;2023-03-14T11:29:28;4.03;;;1.80;;
2338;SDS011;1180;51.438;6.978;2023-03-14T11:31:55;1.33;;;1.00;;
2338;SDS011;1180;51.438;6.978;2023-03-14T11:34:27;2.23;;;1.27;;
2338;SDS011;1180;51.438;6.978;2023-03-14T11:39:37;1.73;;;0.80;;
2338;SDS011;1180;51.438;6.978;2023-03-14T11:42:04;1.10;;;0.90;;
2338;SDS011;1180;51.438;6.978;2023-03-14T11:44:37;2.50;;;0.90;;
2338;SDS011;1180;51.438;6.978;2023-03-14T11:49:43;1.30;;;0.90;;
2338;SDS011;1180;51.438;6.978;2023-03-14T11:52:16;5.60;;;0.90;;
2338;SDS011;1180;51.438;6.978;2023-03-14T11:57:23;3.23;;;1.10;;
2338;SDS011;1180;51.438;6.978;2023-03-14T12:09:59;5.30;;;1.27;;
2338;SDS011;1180;51.438;6.978;2023-03-14T12:12:27;4.73;;;1.07;;
2338;SDS011;1180;51.438;6.978;2023-03-14T12:14:55;3.10;;;1.40;;
2338;SDS011;1180;51.438;6.978;2023-03-14T12:17:26;2.93;;;1.43;;
2338;SDS011;1180;51.438;6.978;2023-03-14T12:20:01;2.43;;;0.87;;
2338;SDS011;1180;51.438;6.978;2023-03-14T12:22:50;1.93;;;1.30;;
2338;SDS011;1180;51.438;6.978;2023-03-14T12:25:28;2.70;;;1.10;;
2338;SDS011;1180;51.438;6.978;2023-03-14T12:35:39;6.13;;;1.40;;
2338;SDS011;1180;51.438;6.978;2023-03-14T12:38:06;5.70;;;1.50;;
2338;SDS011;1180;51.438;6.978;2023-03-14T12:40:45;3.70;;;1.50;;
2338;SDS011;1180;51.438;6.978;2023-03-14T12:43:29;3.73;;;1.43;;
2338;SDS011;1180;51.438;6.978;2023-03-14T13:01:53;4.23;;;2.03;;
2338;SDS011;1180;51.438;6.978;2023-03-14T13:04:26;7.20;;;1.87;;
2338;SDS011;1180;51.438;6.978;2023-03-14T13:06:55;6.93;;;2.70;;
2338;SDS011;1180;51.438;6.978;2023-03-14T13:11:51;5.93;;;1.80;;
2338;SDS011;1180;51.438;6.978;2023-03-14T13:14:18;13.47;;;2.23;;
2338;SDS011;1180;51.438;6.978;2023-03-14T13:16:44;16.03;;;2.80;;
2338;SDS011;1180;51.438;6.978;2023-03-14T13:19:18;9.70;;;3.03;;
2338;SDS011;1180;51.438;6.978;2023-03-14T13:21:49;9.50;;;2.20;;
2338;SDS011;1180;51.438;6.978;2023-03-14T13:24:26;6.73;;;2.37;;
2338;SDS011;1180;51.438;6.978;2023-03-14T13:26:53;13.83;;;2.93;;
2338;SDS011;1180;51.438;6.978;2023-03-14T13:29:22;6.00;;;1.70;;
2338;SDS011;1180;51.438;6.978;2023-03-14T13:31:52;8.67;;;3.23;;
2338;SDS011;1180;51.438;6.978;2023-03-14T13:34:26;8.87;;;3.07;;
2338;SDS011;1180;51.438;6.978;2023-03-14T13:36:54;10.93;;;1.80;;
2338;SDS011;1180;51.438;6.978;2023-03-14T13:39:20;20.73;;;2.70;;
2338;SDS011;1180;51.438;6.978;2023-03-14T13:41:54;8.83;;;2.30;;
2338;SDS011;1180;51.438;6.978;2023-03-14T13:44:27;9.27;;;3.50;;
2338;SDS011;1180;51.438;6.978;2023-03-14T13:47:00;12.33;;;2.67;;
2338;SDS011;1180;51.438;6.978;2023-03-14T13:49:27;19.20;;;3.13;;
2338;SDS011;1180;51.438;6.978;2023-03-14T13:51:56;8.47;;;2.80;;
2338;SDS011;1180;51.438;6.978;2023-03-14T13:54:22;11.60;;;2.60;;
2338;SDS011;1180;51.438;6.978;2023-03-14T13:56:48;11.03;;;2.87;;
2338;SDS011;1180;51.438;6.978;2023-03-14T14:01:53;13.13;;;2.90;;
2338;SDS011;1180;51.438;6.978;2023-03-14T14:04:20;10.33;;;2.73;;
2338;SDS011;1180;51.438;6.978;2023-03-14T14:06:54;17.67;;;3.70;;
2338;SDS011;1180;51.438;6.978;2023-03-14T14:09:30;5.60;;;2.77;;
2338;SDS011;1180;51.438;6.978;2023-03-14T14:17:15;12.63;;;3.10;;
2338;SDS011;1180;51.438;6.978;2023-03-14T14:19:45;8.83;;;2.73;;
2338;SDS011;1180;51.438;6.978;2023-03-14T14:22:12;18.83;;;2.60;;
2338;SDS011;1180;51.438;6.978;2023-03-14T14:24:38;9.93;;;3.00;;
2338;SDS011;1180;51.438;6.978;2023-03-14T14:27:14;6.57;;;2.70;;
2338;SDS011;1180;51.438;6.978;2023-03-14T14:29:42;7.47;;;2.63;;
2338;SDS011;1180;51.438;6.978;2023-03-14T14:32:13;10.63;;;2.23;;
2338;SDS011;1180;51.438;6.978;2023-03-14T14:37:17;8.23;;;1.93;;
2338;SDS011;1180;51.438;6.978;2023-03-14T14:39:44;4.63;;;1.60;;
2338;SDS011;1180;51.438;6.978;2023-03-14T14:42:13;4.33;;;2.17;;
2338;SDS011;1180;51.438;6.978;2023-03-14T14:44:41;6.50;;;2.00;;
2338;SDS011;1180;51.438;6.978;2023-03-14T14:47:12;6.70;;;1.43;;
2338;SDS011;1180;51.438;6.978;2023-03-14T14:49:39;7.07;;;1.87;;
2338;SDS011;1180;51.438;6.978;2023-03-14T14:52:08;5.80;;;1.50;;
2338;SDS011;1180;51.438;6.978;2023-03-14T14:54:45;5.23;;;1.87;;
2338;SDS011;1180;51.438;6.978;2023-03-14T14:57:20;4.70;;;1.40;;
2338;SDS011;1180;51.438;6.978;2023-03-14T14:59:50;5.90;;;2.80;;
2338;SDS011;1180;51.438;6.978;2023-03-14T15:02:30;7.63;;;2.20;;
2338;SDS011;1180;51.438;6.978;2023-03-14T15:05:02;5.90;;;1.90;;
2338;SDS011;1180;51.438;6.978;2023-03-14T15:07:28;3.60;;;1.50;;
2338;SDS011;1180;51.438;6.978;2023-03-14T15:09:53;7.77;;;2.47;;
2338;SDS011;1180;51.438;6.978;2023-03-14T15:12:19;8.40;;;1.93;;
2338;SDS011;1180;51.438;6.978;2023-03-14T15:14:45;2.90;;;1.40;;
2338;SDS011;1180;51.438;6.978;2023-03-14T15:17:11;6.33;;;2.10;;
2338;SDS011;1180;51.438;6.978;2023-03-14T15:19:37;8.80;;;2.17;;
2338;SDS011;1180;51.438;6.978;2023-03-14T15:22:03;6.93;;;1.63;;
2338;SDS011;1180;51.438;6.978;2023-03-14T15:24:31;9.77;;;2.03;;
2338;SDS011;1180;51.438;6.978;2023-03-14T15:26:56;4.37;;;1.50;;
2338;SDS011;1180;51.438;6.978;2023-03-14T15:29:21;6.80;;;2.13;;
2338;SDS011;1180;51.438;6.978;2023-03-14T15:31:47;6.50;;;1.60;;
2338;SDS011;1180;51.438;6.978;2023-03-14T15:34:15;5.43;;;1.43;;
2338;SDS011;1180;51.438;6.978;2023-03-14T15:36:41;6.87;;;1.77;;
2338;SDS011;1180;51.438;6.978;2023-03-14T15:39:07;7.77;;;2.57;;
2338;SDS011;1180;51.438;6.978;2023-03-14T15:41:32;5.00;;;1.70;;
2338;SDS011;1180;51.438;6.978;2023-03-14T15:43:58;4.97;;;1.90;;
2338;SDS011;1180;51.438;6.978;2023-03-14T15:46:23;4.83;;;1.30;;
2338;SDS011;1180;51.438;6.978;2023-03-14T15:48:49;3.83;;;1.37;;
2338;SDS011;1180;51.438;6.978;2023-03-14T15:51:16;5.00;;;1.57;;
2338;SDS011;1180;51.438;6.978;2023-03-14T15:53:41;5.70;;;1.50;;
2338;SDS011;1180;51.438;6.978;2023-03-14T15:56:12;5.63;;;1.40;;
2338;SDS011;1180;51.438;6.978;2023-03-14T15:58:39;3.70;;;1.60;;
2338;SDS011;1180;51.438;6.978;2023-03-14T16:01:05;6.27;;;1.70;;
2338;SDS011;1180;51.438;6.978;2023-03-14T16:03:34;3.63;;;1.43;;
2338;SDS011;1180;51.438;6.978;2023-03-14T16:06:00;5.43;;;1.57;;
2338;SDS011;1180;51.438;6.978;2023-03-14T16:08:25;6.77;;;1.90;;
2338;SDS011;1180;51.438;6.978;2023-03-14T16:10:53;5.70;;;1.73;;
2338;SDS011;1180;51.438;6.978;2023-03-14T16:13:19;6.40;;;1.90;;
2338;SDS011;1180;51.438;6.978;2023-03-14T16:18:20;3.97;;;1.53;;
2338;SDS011;1180;51.438;6.978;2023-03-14T16:20:51;5.23;;;2.00;;
2338;SDS011;1180;51.438;6.978;2023-03-14T16:23:20;3.20;;;1.40;;
2338;SDS011;1180;51.438;6.978;2023-03-14T16:25:45;5.03;;;1.83;;
2338;SDS011;1180;51.438;6.978;2023-03-14T16:28:10;3.20;;;1.53;;
2338;SDS011;1180;51.438;6.978;2023-03-14T16:30:36;7.23;;;1.70;;
2338;SDS011;1180;51.438;6.978;2023-03-14T16:33:01;3.93;;;1.30;;
2338;SDS011;1180;51.438;6.978;2023-03-14T16:35:27;7.10;;;1.63;;
2338;SDS011;1180;51.438;6.978;2023-03-14T16:37:52;8.07;;;1.57;;
2338;SDS011;1180;51.438;6.978;2023-03-14T16:40:18;4.90;;;1.43;;
2338;SDS011;1180;51.438;6.978;2023-03-14T16:42:43;5.67;;;1.57;;
2338;SDS011;1180;51.438;6.978;2023-03-14T16:45:08;3.80;;;1.30;;